createdAt,value
2023-04-25T00:00:40.724Z,48.40
2023-04-25T00:05:44.033Z,48.76
2023-04-25T00:10:47.552Z,49.14
2023-04-25T00:15:52.752Z,49.36
2023-04-25T00:20:56.429Z,49.28
2023-04-25T00:25:59.824Z,49.86
2023-04-25T00:31:04.969Z,50.35
2023-04-25T00:36:09.566Z,50.47
2023-04-25T00:41:13.030Z,51.13
2023-04-25T00:46:17.875Z,51.43
2023-04-25T00:51:23.326Z,51.78
2023-04-25T00:56:26.753Z,52.52
2023-04-25T01:01:32.366Z,52.70
2023-04-25T01:06:35.775Z,52.46
2023-04-25T01:11:41.246Z,52.71
2023-04-25T01:16:46.335Z,53.94
2023-04-25T01:21:51.140Z,54.11
2023-04-25T01:26:57.404Z,55.10
2023-04-25T01:32:01.553Z,56.55
2023-04-25T01:37:06.701Z,56.72
2023-04-25T01:42:10.012Z,56.83
2023-04-25T01:47:13.305Z,56.70
2023-04-25T01:52:17.979Z,55.69
2023-04-25T01:57:21.499Z,55.67
2023-04-25T02:02:25.018Z,56.54
2023-04-25T02:07:29.974Z,56.30
2023-04-25T02:12:33.504Z,56.96
2023-04-25T02:17:36.913Z,56.87
2023-04-25T02:22:41.764Z,56.61
2023-04-25T02:27:45.116Z,56.73
2023-04-25T02:32:49.116Z,56.85
2023-04-25T02:37:54.159Z,56.89
2023-04-25T02:42:57.466Z,57.10
2023-04-25T02:48:00.995Z,56.73
2023-04-25T02:53:05.792Z,56.90
2023-04-25T02:58:09.146Z,56.17
2023-04-25T03:03:12.963Z,56.03
2023-04-25T03:08:18.251Z,55.93
2023-04-25T03:13:21.441Z,56.04
2023-04-25T03:18:25.042Z,55.61
2023-04-25T03:23:29.770Z,55.77
2023-04-25T03:28:32.973Z,55.50
2023-04-25T03:33:36.239Z,55.60
2023-04-25T03:38:42.436Z,55.95
2023-04-25T03:43:45.682Z,55.76
2023-04-25T03:48:49.004Z,56.25
2023-04-25T03:53:54.280Z,56.00
2023-04-25T03:58:58.061Z,56.64
2023-04-25T04:04:01.581Z,56.13
2023-04-25T04:09:10.022Z,55.79
2023-04-25T04:14:13.389Z,55.11
2023-04-25T04:19:16.917Z,54.78
2023-04-25T04:24:21.677Z,55.00
2023-04-25T04:29:24.975Z,54.52
2023-04-25T04:34:28.440Z,54.28
2023-04-25T04:39:33.248Z,54.13
2023-04-25T04:44:38.035Z,53.82
2023-04-25T04:49:41.326Z,53.07
2023-04-25T04:54:46.120Z,52.58
2023-04-25T04:59:49.321Z,52.40
2023-04-25T05:04:52.836Z,51.83
2023-04-25T05:09:57.691Z,51.36
2023-04-25T05:15:01.395Z,50.74
2023-04-25T05:20:06.905Z,50.49
2023-04-25T05:25:12.285Z,50.50
2023-04-25T05:30:15.709Z,50.04
2023-04-25T05:35:19.141Z,48.55
2023-04-25T05:40:23.913Z,47.70
2023-04-25T05:45:27.535Z,47.35
2023-04-25T05:50:30.964Z,47.44
2023-04-25T05:55:35.562Z,47.12
2023-04-25T06:00:39.411Z,46.59
2023-04-25T06:05:43.315Z,45.83
2023-04-25T06:10:47.974Z,45.46
2023-04-25T06:15:51.416Z,45.52
2023-04-25T06:20:54.747Z,44.33
2023-04-25T06:25:59.757Z,43.60
2023-04-25T06:31:03.182Z,42.37
2023-04-25T06:36:06.955Z,43.87
2023-04-25T06:41:11.775Z,42.68
2023-04-25T06:46:15.200Z,42.54
2023-04-25T06:51:18.889Z,42.74
2023-04-25T06:56:24.400Z,41.90
2023-04-25T07:01:27.816Z,40.69
2023-04-25T07:06:32.238Z,40.39
2023-04-25T07:11:36.982Z,39.77
2023-04-25T07:16:40.887Z,39.12
2023-04-25T07:21:44.304Z,39.35
2023-04-25T07:26:49.182Z,38.04
2023-04-25T07:31:52.699Z,37.45
2023-04-25T07:36:56.360Z,36.57
2023-04-25T07:42:01.581Z,34.87
2023-04-25T07:47:05.599Z,31.48
2023-04-25T07:52:08.962Z,29.41
2023-04-25T07:57:15.132Z,27.29
2023-04-25T08:02:18.843Z,24.58
2023-04-25T08:07:22.034Z,23.20
2023-04-25T08:12:27.207Z,22.19
2023-04-25T08:17:30.461Z,20.89
2023-04-25T08:22:34.989Z,19.64
2023-04-25T08:27:39.679Z,19.29
2023-04-25T08:32:43.155Z,19.15
2023-04-25T08:37:46.613Z,17.46
2023-04-25T08:42:52.806Z,14.63
2023-04-25T08:47:59.459Z,15.43
2023-04-25T08:53:07.500Z,14.31
2023-04-25T08:58:13.468Z,13.75
2023-04-25T09:03:17.210Z,12.71
2023-04-25T09:08:20.600Z,11.87
2023-04-25T09:13:30.214Z,10.91
2023-04-25T09:18:35.255Z,11.87
2023-04-25T09:23:43.133Z,14.03
2023-04-25T09:28:49.080Z,14.64
2023-04-25T09:33:55.299Z,16.12
2023-04-25T09:39:01.940Z,15.74
2023-04-25T09:44:06.936Z,14.04
2023-04-25T09:49:10.548Z,15.24
2023-04-25T09:54:14.192Z,16.81
2023-04-25T09:59:20.123Z,15.03
2023-04-25T10:04:29.646Z,12.78
2023-04-25T10:09:35.016Z,11.45
2023-04-25T10:14:40.654Z,11.65
2023-04-25T10:19:44.552Z,11.54
2023-04-25T10:24:49.189Z,15.47
2023-04-25T10:30:06.299Z,16.13
2023-04-25T10:35:16.522Z,15.11
2023-04-25T10:40:24.427Z,14.87
2023-04-25T10:45:29.239Z,14.92
2023-04-25T10:50:40.349Z,15.50
2023-04-25T10:55:52.856Z,14.61
2023-04-25T11:00:58.023Z,13.78
2023-04-25T11:06:03.520Z,13.52
2023-04-25T11:29:36.352Z,15.69
2023-04-25T11:34:39.663Z,16.70
2023-04-25T11:39:47.553Z,15.39
2023-04-25T11:44:52.383Z,14.46
2023-04-25T11:49:55.883Z,14.76
2023-04-25T11:54:59.229Z,16.62
2023-04-25T12:00:12.964Z,17.07
2023-04-25T12:10:26.777Z,18.95
2023-04-25T12:15:31.915Z,19.53
2023-04-25T12:20:35.495Z,19.86
2023-04-25T12:25:40.600Z,21.28
2023-04-25T12:31:02.013Z,21.34
2023-04-25T12:36:10.386Z,22.29
2023-04-25T12:41:13.702Z,23.01
2023-04-25T12:46:18.455Z,22.92
2023-04-25T12:51:21.833Z,22.98
2023-04-25T12:56:25.929Z,22.65
2023-04-25T13:01:31.058Z,21.14
2023-04-25T13:06:34.482Z,20.51
2023-04-25T13:11:37.851Z,20.43
2023-04-25T13:16:42.991Z,20.53
2023-04-25T13:21:46.352Z,19.53
2023-04-25T13:26:49.867Z,19.45
2023-04-25T13:50:08.360Z,19.55
2023-04-25T13:55:11.985Z,21.79
2023-04-25T14:00:16.261Z,23.93
2023-04-25T14:05:21.266Z,25.34
2023-04-25T14:10:24.717Z,26.14
2023-04-25T14:15:28.501Z,26.81
2023-04-25T14:20:33.476Z,27.64
2023-04-25T14:25:37.950Z,27.79
2023-04-25T14:30:41.186Z,28.04
2023-04-25T14:35:46.719Z,27.82
2023-04-25T14:40:50.121Z,28.47
2023-04-25T14:45:54.437Z,28.54
2023-04-25T14:51:00.864Z,28.59
2023-04-25T14:56:04.273Z,28.66
2023-04-25T15:01:07.844Z,29.02
2023-04-25T15:06:12.716Z,29.46
2023-04-25T15:11:16.176Z,29.33
2023-04-25T15:16:19.576Z,29.68
2023-04-25T15:21:24.454Z,30.03
2023-04-25T15:26:28.051Z,30.42
2023-04-25T15:31:31.511Z,30.84
2023-04-25T15:36:36.328Z,31.39
2023-04-25T15:41:39.707Z,31.92
2023-04-25T15:46:44.568Z,32.27
2023-04-25T15:51:49.640Z,33.09
2023-04-25T15:56:52.881Z,33.52
2023-04-25T16:01:57.299Z,34.00
2023-04-25T16:07:03.698Z,34.43
2023-04-25T16:12:08.271Z,35.64
2023-04-25T16:17:11.592Z,39.31
2023-04-25T16:22:16.933Z,41.47
2023-04-25T16:27:20.261Z,42.69
2023-04-25T16:32:23.668Z,43.74
2023-04-25T16:37:28.591Z,44.79
2023-04-25T16:42:31.943Z,46.15
2023-04-25T16:47:36.563Z,46.26
2023-04-25T16:52:42.476Z,48.65
2023-04-25T16:57:47.583Z,49.80
2023-04-25T17:02:51.105Z,51.03
2023-04-25T17:07:56.960Z,52.70
2023-04-25T17:13:00.598Z,55.16
2023-04-25T17:18:04.099Z,56.31
2023-04-25T17:23:08.931Z,58.04
2023-04-25T17:28:13.176Z,57.77
2023-04-25T17:33:16.527Z,58.86
2023-04-25T17:38:21.755Z,59.23
2023-04-25T17:43:25.256Z,58.96
2023-04-25T17:48:28.690Z,59.47
2023-04-25T17:53:33.643Z,60.09
2023-04-25T17:58:37.102Z,60.70
2023-04-25T18:03:42.102Z,60.77
2023-04-25T18:08:47.951Z,61.90
2023-04-25T18:13:51.441Z,61.72
2023-04-25T18:18:55.148Z,62.35
2023-04-25T18:23:59.966Z,63.12
2023-04-25T18:29:03.748Z,63.23
2023-04-25T18:34:07.385Z,63.86
2023-04-25T18:39:21.942Z,65.02
2023-04-25T18:44:26.083Z,65.18
2023-04-25T18:49:29.683Z,65.91
2023-04-25T18:54:34.409Z,65.99
2023-04-25T18:59:37.697Z,65.47
2023-04-25T19:04:40.976Z,65.74
2023-04-25T19:09:45.669Z,65.63
2023-04-25T19:14:50.525Z,65.58
2023-04-25T19:19:54.290Z,66.03
2023-04-25T19:25:09.836Z,66.49
2023-04-25T19:30:14.678Z,65.90
2023-04-25T19:35:18.293Z,66.73
2023-04-25T19:40:23.607Z,67.15
2023-04-25T19:45:27.066Z,67.25
2023-04-25T19:50:30.889Z,67.86
2023-04-25T19:55:35.904Z,68.36
2023-04-25T20:00:39.316Z,68.80
2023-04-25T20:05:42.598Z,69.04
2023-04-25T20:10:47.492Z,70.21
2023-04-25T20:15:50.763Z,70.29
2023-04-25T20:20:55.464Z,71.11
2023-04-25T20:26:00.116Z,71.31
2023-04-25T20:31:03.398Z,71.62
2023-04-25T20:36:06.922Z,72.00
2023-04-25T20:41:11.754Z,72.66
2023-04-25T20:46:16.154Z,72.93
2023-04-25T20:51:20.421Z,73.27
2023-04-25T20:56:26.622Z,73.89
2023-04-25T21:01:30.325Z,74.24
2023-04-25T21:06:34.655Z,74.73
2023-04-25T21:11:39.643Z,75.06
2023-04-25T21:16:42.989Z,75.04
2023-04-25T21:21:47.528Z,74.92
2023-04-25T21:26:52.206Z,75.37
2023-04-25T21:31:56.812Z,75.44
2023-04-25T21:37:00.047Z,75.53
2023-04-25T21:42:06.376Z,76.01
2023-04-25T21:47:09.761Z,76.12
2023-04-25T21:52:13.237Z,76.74
2023-04-25T21:57:18.354Z,77.99
2023-04-25T22:02:22.050Z,77.98
2023-04-25T22:07:25.484Z,78.38
2023-04-25T22:12:30.273Z,79.01
2023-04-25T22:17:34.099Z,79.69
2023-04-25T22:22:37.285Z,79.89
2023-04-25T22:27:43.007Z,80.38
2023-04-25T22:32:46.583Z,81.02
2023-04-25T22:37:50.457Z,81.96
2023-04-25T22:42:55.544Z,82.36
2023-04-25T22:47:58.857Z,82.18
2023-04-25T22:53:04.128Z,82.66
2023-04-25T22:58:09.636Z,83.53
2023-04-25T23:03:13.346Z,83.63
2023-04-25T23:08:17.241Z,84.35
2023-04-25T23:13:22.215Z,85.07
2023-04-25T23:18:25.509Z,85.56
2023-04-25T23:23:28.845Z,85.40
2023-04-25T23:28:33.482Z,86.17
2023-04-25T23:33:37.117Z,86.06
2023-04-25T23:38:40.472Z,86.59
2023-04-25T23:43:45.193Z,87.02
2023-04-25T23:48:48.361Z,86.90
2023-04-25T23:53:51.969Z,87.30
2023-04-25T23:58:56.800Z,87.30
